sensor_id;sensor_type;location;lat;lon;timestamp;P1;durP1;ratioP1;P2;durP2;ratioP2
24635;SDS011;12772;49.794;10.024;2022-07-23T00:01:16;6.97;;;6.22;;
24635;SDS011;12772;49.794;10.024;2022-07-23T00:05:18;6.00;;;5.40;;
24635;SDS011;12772;49.794;10.024;2022-07-23T00:09:20;6.93;;;5.85;;
24635;SDS011;12772;49.794;10.024;2022-07-23T00:13:22;5.75;;;5.15;;
24635;SDS011;12772;49.794;10.024;2022-07-23T00:17:25;12.48;;;6.25;;
24635;SDS011;12772;49.794;10.024;2022-07-23T00:21:27;6.57;;;5.47;;
24635;SDS011;12772;49.794;10.024;2022-07-23T00:25:29;5.85;;;5.35;;
24635;SDS011;12772;49.794;10.024;2022-07-23T00:29:31;7.65;;;6.20;;
24635;SDS011;12772;49.794;10.024;2022-07-23T00:33:33;7.03;;;6.15;;
24635;SDS011;12772;49.794;10.024;2022-07-23T00:37:35;7.50;;;5.35;;
24635;SDS011;12772;49.794;10.024;2022-07-23T00:41:37;6.72;;;6.07;;
24635;SDS011;12772;49.794;10.024;2022-07-23T00:45:39;5.90;;;5.40;;
24635;SDS011;12772;49.794;10.024;2022-07-23T00:49:41;6.93;;;6.32;;
24635;SDS011;12772;49.794;10.024;2022-07-23T00:53:43;7.05;;;6.35;;
24635;SDS011;12772;49.794;10.024;2022-07-23T00:57:46;7.40;;;6.38;;
24635;SDS011;12772;49.794;10.024;2022-07-23T01:01:48;7.85;;;6.43;;
24635;SDS011;12772;49.794;10.024;2022-07-23T01:05:50;7.65;;;7.05;;
24635;SDS011;12772;49.794;10.024;2022-07-23T01:09:53;7.25;;;6.40;;
24635;SDS011;12772;49.794;10.024;2022-07-23T01:13:56;9.05;;;7.10;;
24635;SDS011;12772;49.794;10.024;2022-07-23T01:17:58;9.27;;;7.43;;
24635;SDS011;12772;49.794;10.024;2022-07-23T01:22:01;8.35;;;6.80;;
24635;SDS011;12772;49.794;10.024;2022-07-23T01:26:04;7.68;;;6.93;;
24635;SDS011;12772;49.794;10.024;2022-07-23T01:30:07;9.52;;;7.15;;
24635;SDS011;12772;49.794;10.024;2022-07-23T01:34:11;7.20;;;6.60;;
24635;SDS011;12772;49.794;10.024;2022-07-23T01:38:13;7.30;;;6.55;;
24635;SDS011;12772;49.794;10.024;2022-07-23T01:42:15;7.00;;;6.30;;
24635;SDS011;12772;49.794;10.024;2022-07-23T01:46:17;7.60;;;6.68;;
24635;SDS011;12772;49.794;10.024;2022-07-23T01:50:19;7.28;;;6.68;;
24635;SDS011;12772;49.794;10.024;2022-07-23T01:54:21;7.82;;;6.95;;
24635;SDS011;12772;49.794;10.024;2022-07-23T01:58:24;7.03;;;6.40;;
24635;SDS011;12772;49.794;10.024;2022-07-23T02:02:26;6.53;;;5.93;;
24635;SDS011;12772;49.794;10.024;2022-07-23T02:06:28;7.72;;;6.60;;
24635;SDS011;12772;49.794;10.024;2022-07-23T02:10:30;6.50;;;6.00;;
24635;SDS011;12772;49.794;10.024;2022-07-23T02:14:32;9.18;;;6.22;;
24635;SDS011;12772;49.794;10.024;2022-07-23T02:18:34;9.82;;;7.22;;
24635;SDS011;12772;49.794;10.024;2022-07-23T02:22:37;8.20;;;7.43;;
24635;SDS011;12772;49.794;10.024;2022-07-23T02:26:39;7.00;;;6.07;;
24635;SDS011;12772;49.794;10.024;2022-07-23T02:30:41;7.80;;;6.95;;
24635;SDS011;12772;49.794;10.024;2022-07-23T02:34:43;6.90;;;6.22;;
24635;SDS011;12772;49.794;10.024;2022-07-23T02:38:45;6.43;;;5.80;;
24635;SDS011;12772;49.794;10.024;2022-07-23T02:42:47;8.10;;;6.45;;
24635;SDS011;12772;49.794;10.024;2022-07-23T02:46:49;6.38;;;5.78;;
24635;SDS011;12772;49.794;10.024;2022-07-23T02:50:51;7.28;;;6.55;;
24635;SDS011;12772;49.794;10.024;2022-07-23T02:54:56;6.35;;;5.82;;
24635;SDS011;12772;49.794;10.024;2022-07-23T02:58:58;6.90;;;6.20;;
24635;SDS011;12772;49.794;10.024;2022-07-23T03:03:01;7.65;;;6.45;;
24635;SDS011;12772;49.794;10.024;2022-07-23T03:07:03;8.85;;;6.25;;
24635;SDS011;12772;49.794;10.024;2022-07-23T03:11:05;6.28;;;5.68;;
24635;SDS011;12772;49.794;10.024;2022-07-23T03:15:11;6.38;;;5.78;;
24635;SDS011;12772;49.794;10.024;2022-07-23T03:19:13;6.40;;;5.88;;
24635;SDS011;12772;49.794;10.024;2022-07-23T03:23:15;6.05;;;5.55;;
24635;SDS011;12772;49.794;10.024;2022-07-23T03:27:18;6.72;;;5.22;;
24635;SDS011;12772;49.794;10.024;2022-07-23T03:31:20;5.93;;;5.43;;
24635;SDS011;12772;49.794;10.024;2022-07-23T03:35:22;6.78;;;5.85;;
24635;SDS011;12772;49.794;10.024;2022-07-23T03:39:24;6.53;;;5.88;;
24635;SDS011;12772;49.794;10.024;2022-07-23T03:43:26;5.90;;;5.43;;
24635;SDS011;12772;49.794;10.024;2022-07-23T03:47:28;7.07;;;5.90;;
24635;SDS011;12772;49.794;10.024;2022-07-23T03:51:31;6.35;;;5.78;;
24635;SDS011;12772;49.794;10.024;2022-07-23T03:55:33;8.45;;;6.25;;
24635;SDS011;12772;49.794;10.024;2022-07-23T03:59:35;7.05;;;6.43;;
24635;SDS011;12772;49.794;10.024;2022-07-23T04:03:37;8.32;;;6.35;;
24635;SDS011;12772;49.794;10.024;2022-07-23T04:07:39;6.78;;;6.18;;
24635;SDS011;12772;49.794;10.024;2022-07-23T04:11:42;7.03;;;6.32;;
24635;SDS011;12772;49.794;10.024;2022-07-23T04:15:44;6.78;;;6.22;;
24635;SDS011;12772;49.794;10.024;2022-07-23T04:19:46;8.20;;;6.40;;
24635;SDS011;12772;49.794;10.024;2022-07-23T04:23:48;7.43;;;6.65;;
24635;SDS011;12772;49.794;10.024;2022-07-23T04:27:50;6.60;;;6.05;;
24635;SDS011;12772;49.794;10.024;2022-07-23T04:31:52;6.72;;;6.13;;
24635;SDS011;12772;49.794;10.024;2022-07-23T04:35:54;6.35;;;5.75;;
24635;SDS011;12772;49.794;10.024;2022-07-23T04:39:56;6.63;;;5.88;;
24635;SDS011;12772;49.794;10.024;2022-07-23T04:43:58;5.80;;;5.30;;
24635;SDS011;12772;49.794;10.024;2022-07-23T04:48:01;6.25;;;5.70;;
24635;SDS011;12772;49.794;10.024;2022-07-23T04:52:03;6.47;;;5.95;;
24635;SDS011;12772;49.794;10.024;2022-07-23T04:56:05;5.55;;;5.13;;
24635;SDS011;12772;49.794;10.024;2022-07-23T05:00:08;6.63;;;6.03;;
24635;SDS011;12772;49.794;10.024;2022-07-23T05:04:10;6.35;;;5.75;;
24635;SDS011;12772;49.794;10.024;2022-07-23T05:08:13;6.53;;;5.93;;
24635;SDS011;12772;49.794;10.024;2022-07-23T05:12:16;6.90;;;6.40;;
24635;SDS011;12772;49.794;10.024;2022-07-23T05:16:19;6.72;;;6.13;;
24635;SDS011;12772;49.794;10.024;2022-07-23T05:20:22;6.45;;;5.85;;
24635;SDS011;12772;49.794;10.024;2022-07-23T05:24:26;6.40;;;5.90;;
24635;SDS011;12772;49.794;10.024;2022-07-23T05:28:28;7.13;;;6.43;;
24635;SDS011;12772;49.794;10.024;2022-07-23T05:32:31;7.95;;;6.07;;
24635;SDS011;12772;49.794;10.024;2022-07-23T05:36:34;6.22;;;5.72;;
24635;SDS011;12772;49.794;10.024;2022-07-23T05:40:37;6.53;;;6.03;;
24635;SDS011;12772;49.794;10.024;2022-07-23T05:44:39;6.30;;;5.80;;
24635;SDS011;12772;49.794;10.024;2022-07-23T05:48:41;5.70;;;5.20;;
24635;SDS011;12772;49.794;10.024;2022-07-23T05:52:46;6.78;;;6.07;;
24635;SDS011;12772;49.794;10.024;2022-07-23T05:56:48;6.18;;;5.57;;
24635;SDS011;12772;49.794;10.024;2022-07-23T06:00:51;6.35;;;5.75;;
24635;SDS011;12772;49.794;10.024;2022-07-23T06:04:53;6.38;;;5.88;;
24635;SDS011;12772;49.794;10.024;2022-07-23T06:08:55;5.82;;;5.43;;
24635;SDS011;12772;49.794;10.024;2022-07-23T06:12:57;5.97;;;5.47;;
24635;SDS011;12772;49.794;10.024;2022-07-23T06:16:59;7.03;;;6.35;;
24635;SDS011;12772;49.794;10.024;2022-07-23T06:21:01;7.55;;;6.85;;
24635;SDS011;12772;49.794;10.024;2022-07-23T06:25:04;7.78;;;6.97;;
24635;SDS011;12772;49.794;10.024;2022-07-23T06:29:06;7.47;;;6.78;;
24635;SDS011;12772;49.794;10.024;2022-07-23T06:33:09;8.13;;;7.53;;
24635;SDS011;12772;49.794;10.024;2022-07-23T06:37:12;9.13;;;8.23;;
24635;SDS011;12772;49.794;10.024;2022-07-23T06:41:14;8.80;;;8.00;;
24635;SDS011;12772;49.794;10.024;2022-07-23T06:45:16;7.93;;;7.32;;
24635;SDS011;12772;49.794;10.024;2022-07-23T06:49:18;9.90;;;9.00;;
24635;SDS011;12772;49.794;10.024;2022-07-23T06:53:20;9.57;;;8.73;;
24635;SDS011;12772;49.794;10.024;2022-07-23T06:57:22;9.48;;;8.77;;
24635;SDS011;12772;49.794;10.024;2022-07-23T07:01:26;10.18;;;9.27;;
24635;SDS011;12772;49.794;10.024;2022-07-23T07:05:28;9.43;;;8.63;;
24635;SDS011;12772;49.794;10.024;2022-07-23T07:09:30;10.45;;;9.38;;
24635;SDS011;12772;49.794;10.024;2022-07-23T07:13:32;9.05;;;8.25;;
24635;SDS011;12772;49.794;10.024;2022-07-23T07:17:34;9.57;;;8.75;;
24635;SDS011;12772;49.794;10.024;2022-07-23T07:21:36;9.80;;;8.80;;
24635;SDS011;12772;49.794;10.024;2022-07-23T07:25:38;9.75;;;8.80;;
24635;SDS011;12772;49.794;10.024;2022-07-23T07:29:40;9.82;;;8.82;;
24635;SDS011;12772;49.794;10.024;2022-07-23T07:33:42;8.90;;;7.50;;
24635;SDS011;12772;49.794;10.024;2022-07-23T07:37:44;8.75;;;8.05;;
24635;SDS011;12772;49.794;10.024;2022-07-23T07:41:46;9.10;;;8.30;;
24635;SDS011;12772;49.794;10.024;2022-07-23T07:45:49;8.40;;;7.70;;
24635;SDS011;12772;49.794;10.024;2022-07-23T07:49:51;7.18;;;6.57;;
24635;SDS011;12772;49.794;10.024;2022-07-23T07:53:55;7.78;;;7.18;;
24635;SDS011;12772;49.794;10.024;2022-07-23T07:57:58;8.07;;;7.40;;
24635;SDS011;12772;49.794;10.024;2022-07-23T08:02:00;8.10;;;7.40;;
24635;SDS011;12772;49.794;10.024;2022-07-23T08:06:02;7.93;;;7.00;;
24635;SDS011;12772;49.794;10.024;2022-07-23T08:10:08;9.20;;;8.40;;
24635;SDS011;12772;49.794;10.024;2022-07-23T08:14:10;8.88;;;8.18;;
24635;SDS011;12772;49.794;10.024;2022-07-23T08:18:12;8.90;;;8.10;;
24635;SDS011;12772;49.794;10.024;2022-07-23T08:22:14;9.18;;;8.35;;
24635;SDS011;12772;49.794;10.024;2022-07-23T08:26:17;8.00;;;7.38;;
24635;SDS011;12772;49.794;10.024;2022-07-23T08:30:19;8.48;;;7.68;;
24635;SDS011;12772;49.794;10.024;2022-07-23T08:34:21;8.75;;;7.85;;
24635;SDS011;12772;49.794;10.024;2022-07-23T08:38:23;8.48;;;7.70;;
24635;SDS011;12772;49.794;10.024;2022-07-23T08:42:26;7.95;;;6.43;;
24635;SDS011;12772;49.794;10.024;2022-07-23T08:46:28;7.82;;;7.13;;
24635;SDS011;12772;49.794;10.024;2022-07-23T08:50:30;7.63;;;7.03;;
24635;SDS011;12772;49.794;10.024;2022-07-23T08:54:34;7.22;;;6.63;;
24635;SDS011;12772;49.794;10.024;2022-07-23T08:58:36;7.25;;;6.65;;
24635;SDS011;12772;49.794;10.024;2022-07-23T09:02:39;6.97;;;6.47;;
24635;SDS011;12772;49.794;10.024;2022-07-23T09:06:42;6.95;;;6.25;;
24635;SDS011;12772;49.794;10.024;2022-07-23T09:10:54;6.68;;;6.18;;
24635;SDS011;12772;49.794;10.024;2022-07-23T09:15:04;7.47;;;6.78;;
24635;SDS011;12772;49.794;10.024;2022-07-23T09:19:08;7.13;;;6.53;;
24635;SDS011;12772;49.794;10.024;2022-07-23T09:23:12;7.70;;;6.97;;
24635;SDS011;12772;49.794;10.024;2022-07-23T09:27:14;6.82;;;6.20;;
24635;SDS011;12772;49.794;10.024;2022-07-23T09:31:16;6.72;;;6.22;;
24635;SDS011;12772;49.794;10.024;2022-07-23T09:35:18;6.90;;;6.25;;
24635;SDS011;12772;49.794;10.024;2022-07-23T09:43:30;8.32;;;6.32;;
24635;SDS011;12772;49.794;10.024;2022-07-23T09:47:32;11.00;;;7.20;;
24635;SDS011;12772;49.794;10.024;2022-07-23T09:51:40;7.55;;;6.75;;
24635;SDS011;12772;49.794;10.024;2022-07-23T09:55:46;7.15;;;6.55;;
24635;SDS011;12772;49.794;10.024;2022-07-23T09:59:48;8.25;;;6.60;;
24635;SDS011;12772;49.794;10.024;2022-07-23T10:03:51;7.00;;;6.35;;
24635;SDS011;12772;49.794;10.024;2022-07-23T10:07:54;7.75;;;6.95;;
24635;SDS011;12772;49.794;10.024;2022-07-23T10:11:57;6.63;;;6.13;;
24635;SDS011;12772;49.794;10.024;2022-07-23T10:16:11;6.75;;;6.13;;
24635;SDS011;12772;49.794;10.024;2022-07-23T10:20:14;7.05;;;6.30;;
24635;SDS011;12772;49.794;10.024;2022-07-23T10:24:18;7.07;;;5.47;;
24635;SDS011;12772;49.794;10.024;2022-07-23T10:37:44;6.18;;;5.75;;
24635;SDS011;12772;49.794;10.024;2022-07-23T10:41:50;9.23;;;5.68;;
24635;SDS011;12772;49.794;10.024;2022-07-23T10:45:53;6.00;;;5.53;;
24635;SDS011;12772;49.794;10.024;2022-07-23T10:54:23;6.25;;;5.78;;
24635;SDS011;12772;49.794;10.024;2022-07-23T10:58:45;6.55;;;6.13;;
24635;SDS011;12772;49.794;10.024;2022-07-23T11:02:49;7.03;;;6.43;;
24635;SDS011;12772;49.794;10.024;2022-07-23T11:10:56;5.53;;;5.18;;
24635;SDS011;12772;49.794;10.024;2022-07-23T11:15:11;6.13;;;5.50;;
24635;SDS011;12772;49.794;10.024;2022-07-23T11:19:15;6.07;;;5.47;;
24635;SDS011;12772;49.794;10.024;2022-07-23T11:23:17;6.57;;;5.97;;
24635;SDS011;12772;49.794;10.024;2022-07-23T11:27:20;6.55;;;5.95;;
24635;SDS011;12772;49.794;10.024;2022-07-23T11:32:43;6.32;;;5.82;;
24635;SDS011;12772;49.794;10.024;2022-07-23T11:36:22;7.07;;;6.40;;
24635;SDS011;12772;49.794;10.024;2022-07-23T11:40:25;6.10;;;5.70;;
24635;SDS011;12772;49.794;10.024;2022-07-23T11:48:31;6.60;;;6.00;;
24635;SDS011;12772;49.794;10.024;2022-07-23T11:52:33;6.15;;;5.75;;
24635;SDS011;12772;49.794;10.024;2022-07-23T11:56:35;6.45;;;5.88;;
24635;SDS011;12772;49.794;10.024;2022-07-23T12:00:39;6.38;;;5.85;;
24635;SDS011;12772;49.794;10.024;2022-07-23T12:04:46;6.53;;;6.05;;
24635;SDS011;12772;49.794;10.024;2022-07-23T12:08:50;5.82;;;5.43;;
24635;SDS011;12772;49.794;10.024;2022-07-23T12:12:53;9.95;;;5.57;;
24635;SDS011;12772;49.794;10.024;2022-07-23T12:17:07;6.63;;;6.13;;
24635;SDS011;12772;49.794;10.024;2022-07-23T12:21:10;5.93;;;5.43;;
24635;SDS011;12772;49.794;10.024;2022-07-23T12:25:13;6.22;;;5.82;;
24635;SDS011;12772;49.794;10.024;2022-07-23T12:29:17;10.05;;;5.72;;
24635;SDS011;12772;49.794;10.024;2022-07-23T12:33:23;6.07;;;5.57;;
24635;SDS011;12772;49.794;10.024;2022-07-23T12:37:30;6.32;;;5.82;;
24635;SDS011;12772;49.794;10.024;2022-07-23T12:41:52;6.28;;;5.82;;
24635;SDS011;12772;49.794;10.024;2022-07-23T12:46:00;5.80;;;5.30;;
24635;SDS011;12772;49.794;10.024;2022-07-23T12:50:04;6.10;;;5.55;;
24635;SDS011;12772;49.794;10.024;2022-07-23T12:54:07;5.97;;;5.50;;
24635;SDS011;12772;49.794;10.024;2022-07-23T12:58:19;5.80;;;5.40;;
24635;SDS011;12772;49.794;10.024;2022-07-23T13:02:22;5.00;;;4.70;;
24635;SDS011;12772;49.794;10.024;2022-07-23T13:06:24;5.57;;;5.18;;
24635;SDS011;12772;49.794;10.024;2022-07-23T13:10:28;5.90;;;5.40;;
24635;SDS011;12772;49.794;10.024;2022-07-23T13:14:30;6.05;;;5.53;;
24635;SDS011;12772;49.794;10.024;2022-07-23T13:18:32;5.63;;;5.13;;
24635;SDS011;12772;49.794;10.024;2022-07-23T13:22:34;6.65;;;6.03;;
24635;SDS011;12772;49.794;10.024;2022-07-23T13:26:36;5.95;;;5.45;;
24635;SDS011;12772;49.794;10.024;2022-07-23T13:30:39;6.10;;;5.35;;
24635;SDS011;12772;49.794;10.024;2022-07-23T13:34:42;6.07;;;5.57;;
24635;SDS011;12772;49.794;10.024;2022-07-23T13:38:44;6.00;;;5.40;;
24635;SDS011;12772;49.794;10.024;2022-07-23T13:42:46;5.40;;;4.97;;
24635;SDS011;12772;49.794;10.024;2022-07-23T13:46:49;5.55;;;5.05;;
24635;SDS011;12772;49.794;10.024;2022-07-23T13:50:51;5.90;;;5.28;;
24635;SDS011;12772;49.794;10.024;2022-07-23T13:54:53;5.63;;;5.00;;
24635;SDS011;12772;49.794;10.024;2022-07-23T13:58:56;5.55;;;5.05;;
24635;SDS011;12772;49.794;10.024;2022-07-23T14:02:58;5.40;;;5.00;;
24635;SDS011;12772;49.794;10.024;2022-07-23T14:07:01;5.85;;;5.47;;
24635;SDS011;12772;49.794;10.024;2022-07-23T14:11:03;5.53;;;5.10;;
24635;SDS011;12772;49.794;10.024;2022-07-23T14:15:05;5.53;;;5.13;;
24635;SDS011;12772;49.794;10.024;2022-07-23T14:19:09;5.07;;;4.68;;
24635;SDS011;12772;49.794;10.024;2022-07-23T14:23:12;5.78;;;5.38;;
24635;SDS011;12772;49.794;10.024;2022-07-23T14:27:14;5.72;;;5.20;;
24635;SDS011;12772;49.794;10.024;2022-07-23T14:31:16;4.93;;;4.63;;
24635;SDS011;12772;49.794;10.024;2022-07-23T14:35:18;5.47;;;4.97;;
24635;SDS011;12772;49.794;10.024;2022-07-23T14:39:20;6.05;;;5.43;;
24635;SDS011;12772;49.794;10.024;2022-07-23T14:43:22;5.68;;;5.18;;
24635;SDS011;12772;49.794;10.024;2022-07-23T14:47:24;5.05;;;4.68;;
24635;SDS011;12772;49.794;10.024;2022-07-23T14:51:26;5.45;;;5.05;;
24635;SDS011;12772;49.794;10.024;2022-07-23T14:55:30;6.07;;;5.50;;
24635;SDS011;12772;49.794;10.024;2022-07-23T14:59:35;5.50;;;5.00;;
24635;SDS011;12772;49.794;10.024;2022-07-23T15:03:38;5.68;;;5.18;;
24635;SDS011;12772;49.794;10.024;2022-07-23T15:07:40;5.10;;;4.78;;
24635;SDS011;12772;49.794;10.024;2022-07-23T15:11:42;4.75;;;4.35;;
24635;SDS011;12772;49.794;10.024;2022-07-23T15:15:44;4.88;;;4.47;;
24635;SDS011;12772;49.794;10.024;2022-07-23T15:19:46;5.30;;;4.90;;
24635;SDS011;12772;49.794;10.024;2022-07-23T15:23:49;5.68;;;5.28;;
24635;SDS011;12772;49.794;10.024;2022-07-23T15:27:51;6.00;;;5.28;;
24635;SDS011;12772;49.794;10.024;2022-07-23T15:31:53;10.02;;;5.32;;
24635;SDS011;12772;49.794;10.024;2022-07-23T15:35:55;5.03;;;4.72;;
24635;SDS011;12772;49.794;10.024;2022-07-23T15:40:04;4.95;;;4.65;;
24635;SDS011;12772;49.794;10.024;2022-07-23T15:49:18;5.10;;;4.70;;
24635;SDS011;12772;49.794;10.024;2022-07-23T15:53:20;5.13;;;4.70;;
24635;SDS011;12772;49.794;10.024;2022-07-23T15:57:22;7.45;;;4.60;;
24635;SDS011;12772;49.794;10.024;2022-07-23T16:01:24;5.70;;;5.20;;
24635;SDS011;12772;49.794;10.024;2022-07-23T16:05:29;5.82;;;4.60;;
24635;SDS011;12772;49.794;10.024;2022-07-23T16:09:32;5.50;;;5.10;;
24635;SDS011;12772;49.794;10.024;2022-07-23T16:13:34;5.55;;;5.05;;
24635;SDS011;12772;49.794;10.024;2022-07-23T16:17:37;4.50;;;4.20;;
24635;SDS011;12772;49.794;10.024;2022-07-23T16:21:39;5.05;;;4.63;;
24635;SDS011;12772;49.794;10.024;2022-07-23T16:25:41;6.75;;;4.68;;
24635;SDS011;12772;49.794;10.024;2022-07-23T16:29:43;4.97;;;4.50;;
24635;SDS011;12772;49.794;10.024;2022-07-23T16:33:45;4.43;;;4.13;;
24635;SDS011;12772;49.794;10.024;2022-07-23T16:37:48;4.35;;;4.05;;
24635;SDS011;12772;49.794;10.024;2022-07-23T16:41:50;4.30;;;3.90;;
24635;SDS011;12772;49.794;10.024;2022-07-23T16:45:52;4.85;;;4.35;;
24635;SDS011;12772;49.794;10.024;2022-07-23T16:49:55;3.72;;;3.42;;
24635;SDS011;12772;49.794;10.024;2022-07-23T16:53:57;4.40;;;4.00;;
24635;SDS011;12772;49.794;10.024;2022-07-23T16:58:15;4.47;;;4.18;;
24635;SDS011;12772;49.794;10.024;2022-07-23T17:02:17;5.05;;;4.63;;
24635;SDS011;12772;49.794;10.024;2022-07-23T17:06:19;5.35;;;4.03;;
24635;SDS011;12772;49.794;10.024;2022-07-23T17:10:21;4.30;;;3.90;;
24635;SDS011;12772;49.794;10.024;2022-07-23T17:14:23;5.47;;;4.43;;
24635;SDS011;12772;49.794;10.024;2022-07-23T17:18:34;3.85;;;3.55;;
24635;SDS011;12772;49.794;10.024;2022-07-23T17:22:37;5.40;;;4.40;;
24635;SDS011;12772;49.794;10.024;2022-07-23T17:26:40;4.82;;;4.45;;
24635;SDS011;12772;49.794;10.024;2022-07-23T17:30:42;4.97;;;4.50;;
24635;SDS011;12772;49.794;10.024;2022-07-23T17:39:49;4.28;;;3.97;;
24635;SDS011;12772;49.794;10.024;2022-07-23T17:43:51;4.57;;;4.28;;
24635;SDS011;12772;49.794;10.024;2022-07-23T17:47:53;4.15;;;3.90;;
24635;SDS011;12772;49.794;10.024;2022-07-23T17:51:55;4.38;;;4.00;;
24635;SDS011;12772;49.794;10.024;2022-07-23T17:55:57;3.80;;;3.53;;
24635;SDS011;12772;49.794;10.024;2022-07-23T17:59:59;4.20;;;3.90;;
24635;SDS011;12772;49.794;10.024;2022-07-23T18:04:02;4.40;;;4.10;;
24635;SDS011;12772;49.794;10.024;2022-07-23T18:08:04;5.80;;;4.15;;
24635;SDS011;12772;49.794;10.024;2022-07-23T18:12:07;4.43;;;3.35;;
24635;SDS011;12772;49.794;10.024;2022-07-23T18:16:09;4.05;;;3.75;;
24635;SDS011;12772;49.794;10.024;2022-07-23T18:20:11;5.00;;;4.50;;
24635;SDS011;12772;49.794;10.024;2022-07-23T18:24:14;4.00;;;3.60;;
24635;SDS011;12772;49.794;10.024;2022-07-23T18:28:16;4.55;;;4.00;;
24635;SDS011;12772;49.794;10.024;2022-07-23T18:32:18;4.93;;;4.35;;
24635;SDS011;12772;49.794;10.024;2022-07-23T18:36:21;5.18;;;4.25;;
24635;SDS011;12772;49.794;10.024;2022-07-23T18:40:23;4.18;;;3.88;;
24635;SDS011;12772;49.794;10.024;2022-07-23T18:44:25;4.63;;;4.20;;
24635;SDS011;12772;49.794;10.024;2022-07-23T18:48:27;4.22;;;3.92;;
24635;SDS011;12772;49.794;10.024;2022-07-23T18:52:29;4.90;;;3.90;;
24635;SDS011;12772;49.794;10.024;2022-07-23T18:56:31;4.10;;;3.80;;
24635;SDS011;12772;49.794;10.024;2022-07-23T19:00:34;4.43;;;4.07;;
24635;SDS011;12772;49.794;10.024;2022-07-23T19:04:38;4.10;;;3.88;;
24635;SDS011;12772;49.794;10.024;2022-07-23T19:08:40;4.78;;;4.38;;
24635;SDS011;12772;49.794;10.024;2022-07-23T19:12:42;4.25;;;3.95;;
24635;SDS011;12772;49.794;10.024;2022-07-23T19:16:44;4.35;;;3.95;;
24635;SDS011;12772;49.794;10.024;2022-07-23T19:20:46;4.57;;;4.18;;
24635;SDS011;12772;49.794;10.024;2022-07-23T19:24:48;4.30;;;3.95;;
24635;SDS011;12772;49.794;10.024;2022-07-23T19:28:51;5.18;;;4.78;;
24635;SDS011;12772;49.794;10.024;2022-07-23T19:32:53;4.63;;;4.32;;
24635;SDS011;12772;49.794;10.024;2022-07-23T19:36:56;4.28;;;3.97;;
24635;SDS011;12772;49.794;10.024;2022-07-23T19:40:58;4.78;;;4.35;;
24635;SDS011;12772;49.794;10.024;2022-07-23T19:45:01;4.72;;;4.40;;
24635;SDS011;12772;49.794;10.024;2022-07-23T19:49:04;4.47;;;4.18;;
24635;SDS011;12772;49.794;10.024;2022-07-23T19:53:06;6.22;;;4.35;;
24635;SDS011;12772;49.794;10.024;2022-07-23T19:57:08;5.20;;;4.70;;
24635;SDS011;12772;49.794;10.024;2022-07-23T20:01:11;5.28;;;4.82;;
24635;SDS011;12772;49.794;10.024;2022-07-23T20:05:13;5.75;;;4.88;;
24635;SDS011;12772;49.794;10.024;2022-07-23T20:09:15;4.93;;;4.47;;
24635;SDS011;12772;49.794;10.024;2022-07-23T20:13:17;5.20;;;4.63;;
24635;SDS011;12772;49.794;10.024;2022-07-23T20:17:19;4.80;;;4.50;;
24635;SDS011;12772;49.794;10.024;2022-07-23T20:21:21;4.97;;;4.47;;
24635;SDS011;12772;49.794;10.024;2022-07-23T20:25:24;4.38;;;4.07;;
24635;SDS011;12772;49.794;10.024;2022-07-23T20:29:26;5.70;;;5.20;;
24635;SDS011;12772;49.794;10.024;2022-07-23T20:33:28;5.00;;;4.60;;
24635;SDS011;12772;49.794;10.024;2022-07-23T20:37:30;5.05;;;4.70;;
24635;SDS011;12772;49.794;10.024;2022-07-23T20:41:33;5.85;;;4.78;;
24635;SDS011;12772;49.794;10.024;2022-07-23T20:45:35;4.53;;;4.20;;
24635;SDS011;12772;49.794;10.024;2022-07-23T20:49:37;5.15;;;4.70;;
24635;SDS011;12772;49.794;10.024;2022-07-23T20:53:42;5.07;;;4.70;;
24635;SDS011;12772;49.794;10.024;2022-07-23T20:57:44;5.22;;;4.82;;
24635;SDS011;12772;49.794;10.024;2022-07-23T21:01:46;5.47;;;4.90;;
24635;SDS011;12772;49.794;10.024;2022-07-23T21:05:48;5.10;;;4.70;;
24635;SDS011;12772;49.794;10.024;2022-07-23T21:09:50;5.32;;;4.93;;
24635;SDS011;12772;49.794;10.024;2022-07-23T21:13:52;5.35;;;4.65;;
24635;SDS011;12772;49.794;10.024;2022-07-23T21:17:54;5.55;;;5.10;;
24635;SDS011;12772;49.794;10.024;2022-07-23T21:21:56;5.10;;;4.70;;
24635;SDS011;12772;49.794;10.024;2022-07-23T21:25:59;5.72;;;5.25;;
24635;SDS011;12772;49.794;10.024;2022-07-23T21:30:02;5.22;;;4.82;;
24635;SDS011;12772;49.794;10.024;2022-07-23T21:34:04;4.63;;;4.32;;
24635;SDS011;12772;49.794;10.024;2022-07-23T21:38:07;5.20;;;4.80;;
24635;SDS011;12772;49.794;10.024;2022-07-23T21:42:09;6.57;;;5.88;;
24635;SDS011;12772;49.794;10.024;2022-07-23T21:46:11;7.80;;;5.45;;
24635;SDS011;12772;49.794;10.024;2022-07-23T21:50:13;6.70;;;6.10;;
24635;SDS011;12772;49.794;10.024;2022-07-23T21:54:15;7.10;;;6.50;;
24635;SDS011;12772;49.794;10.024;2022-07-23T21:58:17;7.68;;;6.97;;
24635;SDS011;12772;49.794;10.024;2022-07-23T22:02:19;8.52;;;7.78;;
24635;SDS011;12772;49.794;10.024;2022-07-23T22:06:22;8.68;;;7.88;;
24635;SDS011;12772;49.794;10.024;2022-07-23T22:10:24;8.32;;;7.60;;
24635;SDS011;12772;49.794;10.024;2022-07-23T22:14:27;7.53;;;6.82;;
24635;SDS011;12772;49.794;10.024;2022-07-23T22:18:29;6.93;;;6.32;;
24635;SDS011;12772;49.794;10.024;2022-07-23T22:22:32;7.45;;;6.85;;
24635;SDS011;12772;49.794;10.024;2022-07-23T22:26:34;8.70;;;7.10;;
24635;SDS011;12772;49.794;10.024;2022-07-23T22:30:36;9.02;;;8.23;;
24635;SDS011;12772;49.794;10.024;2022-07-23T22:34:38;8.27;;;7.50;;
24635;SDS011;12772;49.794;10.024;2022-07-23T22:38:40;8.20;;;6.68;;
24635;SDS011;12772;49.794;10.024;2022-07-23T22:42:42;8.20;;;7.50;;
24635;SDS011;12772;49.794;10.024;2022-07-23T22:46:45;7.85;;;6.97;;
24635;SDS011;12772;49.794;10.024;2022-07-23T22:50:47;7.65;;;6.80;;
24635;SDS011;12772;49.794;10.024;2022-07-23T22:54:50;7.82;;;7.22;;
24635;SDS011;12772;49.794;10.024;2022-07-23T22:58:52;7.03;;;6.40;;
24635;SDS011;12772;49.794;10.024;2022-07-23T23:02:54;7.80;;;7.00;;
24635;SDS011;12772;49.794;10.024;2022-07-23T23:06:56;8.57;;;7.60;;
24635;SDS011;12772;49.794;10.024;2022-07-23T23:10:58;8.23;;;7.38;;
24635;SDS011;12772;49.794;10.024;2022-07-23T23:15:00;6.80;;;6.00;;
24635;SDS011;12772;49.794;10.024;2022-07-23T23:19:02;6.20;;;5.45;;
24635;SDS011;12772;49.794;10.024;2022-07-23T23:23:05;7.18;;;5.32;;
24635;SDS011;12772;49.794;10.024;2022-07-23T23:27:07;6.80;;;6.10;;
24635;SDS011;12772;49.794;10.024;2022-07-23T23:31:10;5.50;;;5.00;;
24635;SDS011;12772;49.794;10.024;2022-07-23T23:35:12;5.72;;;5.30;;
24635;SDS011;12772;49.794;10.024;2022-07-23T23:39:14;7.30;;;5.63;;
24635;SDS011;12772;49.794;10.024;2022-07-23T23:43:16;6.40;;;5.65;;
24635;SDS011;12772;49.794;10.024;2022-07-23T23:47:18;6.47;;;4.80;;
24635;SDS011;12772;49.794;10.024;2022-07-23T23:51:20;5.38;;;4.88;;
24635;SDS011;12772;49.794;10.024;2022-07-23T23:55:23;4.85;;;4.45;;
24635;SDS011;12772;49.794;10.024;2022-07-23T23:59:25;4.50;;;4.20;;
